createdAt,value
2022-08-03T00:02:17.800Z,99124.41
2022-08-03T00:04:45.566Z,99127.31
2022-08-03T00:07:12.773Z,99129.94
2022-08-03T00:09:40.022Z,99135.22
2022-08-03T00:12:07.791Z,99121.97
2022-08-03T00:14:35.148Z,99119.22
2022-08-03T00:17:03.930Z,99141.06
2022-08-03T00:19:31.265Z,99108.88
2022-08-03T00:21:58.360Z,99113.09
2022-08-03T00:24:25.635Z,99124.44
2022-08-03T00:26:52.859Z,99140.75
2022-08-03T00:29:20.240Z,99140.09
2022-08-03T00:31:59.354Z,99128.47
2022-08-03T00:34:57.286Z,99119.47
2022-08-03T00:37:15.203Z,99149.50
2022-08-03T00:39:46.049Z,99139.16
2022-08-03T00:42:13.557Z,99127.25
2022-08-03T00:44:42.740Z,99140.34
2022-08-03T00:47:11.777Z,99112.84
2022-08-03T00:49:41.130Z,99114.19
2022-08-03T00:52:13.918Z,99119.38
2022-08-03T00:54:41.311Z,99118.56
2022-08-03T00:57:09.261Z,99118.44
2022-08-03T00:59:38.390Z,99097.59
2022-08-03T01:02:06.208Z,99085.78
2022-08-03T01:04:33.433Z,99118.81
2022-08-03T01:07:32.765Z,99119.09
2022-08-03T01:10:28.706Z,99118.63
2022-08-03T01:14:01.944Z,99119.75
2022-08-03T01:16:36.516Z,99112.19
2022-08-03T01:19:34.908Z,99116.38
2022-08-03T01:22:23.270Z,99125.13
2022-08-03T01:25:15.125Z,99122.69
2022-08-03T01:27:57.677Z,99118.34
2022-08-03T01:30:31.642Z,99131.47
2022-08-03T01:33:12.705Z,99114.63
2022-08-03T01:35:46.806Z,99116.91
2022-08-03T01:38:19.216Z,99123.34
2022-08-03T01:40:48.033Z,99105.59
2022-08-03T01:44:26.792Z,99109.00
2022-08-03T01:46:09.316Z,99142.94
2022-08-03T01:48:39.873Z,99113.53
2022-08-03T01:51:09.322Z,99129.69
2022-08-03T01:53:38.464Z,99104.94
2022-08-03T01:56:07.743Z,99130.19
2022-08-03T01:58:37.440Z,99104.78
2022-08-03T02:01:07.382Z,99115.31
2022-08-03T02:03:38.698Z,99113.03
2022-08-03T02:07:01.968Z,99119.03
2022-08-03T02:09:17.868Z,99114.00
2022-08-03T02:11:47.286Z,99122.59
2022-08-03T02:14:16.534Z,99133.88
2022-08-03T02:16:46.306Z,99117.06
2022-08-03T02:19:14.948Z,99146.84
2022-08-03T02:21:56.746Z,99121.78
2022-08-03T02:24:32.139Z,99140.81
2022-08-03T02:27:01.440Z,99145.69
2022-08-03T02:29:40.285Z,99144.38
2022-08-03T02:32:17.566Z,99115.91
2022-08-03T02:34:49.455Z,99153.91
2022-08-03T02:37:20.178Z,99136.88
2022-08-03T02:39:49.384Z,99156.16
2022-08-03T02:42:18.946Z,99140.63
2022-08-03T02:44:50.137Z,99155.47
2022-08-03T02:47:21.514Z,99144.75
2022-08-03T02:49:52.315Z,99148.31
2022-08-03T02:52:26.917Z,99140.69
2022-08-03T02:54:59.382Z,99169.59
2022-08-03T02:57:32.151Z,99149.03
2022-08-03T03:00:00.461Z,99131.75
2022-08-03T03:02:29.954Z,99172.13
2022-08-03T03:05:54.740Z,99154.63
2022-08-03T03:07:51.873Z,99155.84
2022-08-03T03:10:22.767Z,99127.06
2022-08-03T03:12:56.885Z,99146.13
2022-08-03T03:15:26.249Z,99136.84
2022-08-03T03:17:54.735Z,99159.91
2022-08-03T03:20:29.800Z,99160.72
2022-08-03T03:23:01.757Z,99146.25
2022-08-03T03:25:33.087Z,99143.47
2022-08-03T03:28:02.076Z,99146.81
2022-08-03T03:30:30.295Z,99139.34
2022-08-03T03:32:59.788Z,99157.44
2022-08-03T03:35:28.288Z,99142.16
2022-08-03T03:37:59.635Z,99179.63
2022-08-03T03:40:28.361Z,99143.38
2022-08-03T03:42:58.858Z,99148.88
2022-08-03T03:45:27.322Z,99150.09
2022-08-03T03:47:54.781Z,99165.22
2022-08-03T03:50:23.162Z,99159.59
2022-08-03T03:52:50.449Z,99152.13
2022-08-03T03:55:24.245Z,99169.03
2022-08-03T03:58:17.617Z,99167.38
2022-08-03T04:00:51.019Z,99151.94
2022-08-03T04:03:19.259Z,99158.66
2022-08-03T04:06:05.768Z,99177.06
2022-08-03T04:08:59.493Z,99164.75
2022-08-03T04:11:44.339Z,99181.63
2022-08-03T04:14:40.672Z,99177.59
2022-08-03T04:17:15.097Z,99201.00
2022-08-03T04:19:51.523Z,99183.16
2022-08-03T04:22:29.116Z,99187.75
2022-08-03T04:25:08.647Z,99201.56
2022-08-03T04:28:07.751Z,99194.09
2022-08-03T04:30:54.459Z,99162.88
2022-08-03T04:33:47.351Z,99192.09
2022-08-03T04:36:21.661Z,99193.25
2022-08-03T04:39:06.362Z,99179.53
2022-08-03T04:42:08.335Z,99178.38
2022-08-03T04:44:28.309Z,99170.34
2022-08-03T04:47:00.123Z,99191.28
2022-08-03T04:49:30.212Z,99193.31
2022-08-03T04:52:02.440Z,99186.66
2022-08-03T04:54:29.884Z,99169.25
2022-08-03T04:57:27.248Z,99179.63
2022-08-03T05:00:03.047Z,99174.75
2022-08-03T05:02:32.449Z,99187.63
2022-08-03T05:05:00.926Z,99185.03
2022-08-03T05:07:35.613Z,99191.59
2022-08-03T05:10:16.173Z,99182.94
2022-08-03T05:16:59.112Z,99197.53
2022-08-03T05:19:26.239Z,99187.50
2022-08-03T05:21:53.174Z,99181.69
2022-08-03T05:24:20.166Z,99189.75
2022-08-03T05:26:47.198Z,99193.91
2022-08-03T05:29:14.215Z,99205.16
2022-08-03T05:31:41.190Z,99193.88
2022-08-03T05:34:09.542Z,99210.34
2022-08-03T05:36:36.539Z,99200.13
2022-08-03T05:39:03.626Z,99204.50
2022-08-03T05:41:36.992Z,99187.50
2022-08-03T05:44:05.140Z,99201.16
2022-08-03T05:46:32.277Z,99199.72
2022-08-03T05:49:00.572Z,99200.97
2022-08-03T05:51:29.046Z,99201.03
2022-08-03T05:53:56.379Z,99187.09
2022-08-03T05:56:25.325Z,99192.38
2022-08-03T05:58:52.781Z,99210.44
2022-08-03T06:01:22.074Z,99208.28
2022-08-03T06:03:50.837Z,99192.78
2022-08-03T06:06:18.719Z,99198.13
2022-08-03T06:08:46.161Z,99207.78
2022-08-03T06:11:19.246Z,99196.91
2022-08-03T06:13:46.515Z,99202.59
2022-08-03T06:16:14.206Z,99196.84
2022-08-03T06:18:41.569Z,99197.78
2022-08-03T06:21:15.610Z,99189.44
2022-08-03T06:23:54.307Z,99191.50
2022-08-03T06:26:31.995Z,99207.56
2022-08-03T06:29:03.786Z,99191.38
2022-08-03T06:31:32.360Z,99215.53
2022-08-03T06:34:34.182Z,99221.47
2022-08-03T06:36:53.022Z,99208.00
2022-08-03T06:46:48.618Z,99212.91
2022-08-03T06:49:15.729Z,99207.81
2022-08-03T06:52:04.442Z,99200.28
2022-08-03T06:54:32.870Z,99201.53
2022-08-03T06:57:00.968Z,99204.72
2022-08-03T07:00:10.306Z,99199.41
2022-08-03T07:02:22.384Z,99215.00
2022-08-03T07:04:49.704Z,99220.31
2022-08-03T07:07:17.585Z,99204.84
2022-08-03T07:09:56.922Z,99207.72
2022-08-03T07:12:26.806Z,99214.13
2022-08-03T07:14:57.947Z,99210.59
2022-08-03T07:17:27.322Z,99214.22
2022-08-03T07:19:54.346Z,99211.50
2022-08-03T07:22:21.297Z,99209.25
2022-08-03T07:24:48.323Z,99209.50
2022-08-03T07:27:16.528Z,99216.44
2022-08-03T07:29:43.616Z,99222.25
2022-08-03T07:32:10.655Z,99216.47
2022-08-03T07:34:39.648Z,99216.56
2022-08-03T07:37:06.684Z,99215.09
2022-08-03T07:39:36.312Z,99214.31
2022-08-03T07:42:03.477Z,99213.78
2022-08-03T07:44:30.419Z,99221.72
2022-08-03T07:46:57.908Z,99214.91
2022-08-03T07:49:25.777Z,99221.13
2022-08-03T07:52:11.255Z,99213.47
2022-08-03T07:54:56.851Z,99229.38
2022-08-03T07:57:24.470Z,99234.56
2022-08-03T08:00:01.512Z,99233.34
2022-08-03T08:02:39.119Z,99210.91
2022-08-03T08:05:06.493Z,99228.06
2022-08-03T08:07:33.649Z,99216.16
2022-08-03T08:10:04.265Z,99235.50
2022-08-03T08:12:31.220Z,99228.66
2022-08-03T08:14:58.456Z,99229.25
2022-08-03T08:17:25.502Z,99228.25
2022-08-03T08:19:53.291Z,99237.81
2022-08-03T08:22:29.829Z,99238.59
2022-08-03T08:25:01.869Z,99233.38
2022-08-03T08:28:29.417Z,99211.38
2022-08-03T08:30:19.649Z,99224.50
2022-08-03T08:32:48.088Z,99238.91
2022-08-03T08:35:16.009Z,99226.22
2022-08-03T08:37:44.298Z,99221.56
2022-08-03T08:40:21.943Z,99228.50
2022-08-03T08:42:58.388Z,99235.34
2022-08-03T08:45:28.875Z,99231.84
2022-08-03T08:48:01.884Z,99226.47
2022-08-03T08:50:38.990Z,99226.97
2022-08-03T08:53:09.837Z,99250.41
2022-08-03T08:55:58.396Z,99236.25
2022-08-03T08:58:28.801Z,99227.50
2022-08-03T09:00:56.236Z,99235.13
2022-08-03T09:03:30.134Z,99235.88
2022-08-03T09:06:00.931Z,99226.28
2022-08-03T09:08:29.869Z,99239.88
2022-08-03T09:10:56.901Z,99234.66
2022-08-03T09:13:24.357Z,99229.44
2022-08-03T09:16:09.327Z,99236.66
2022-08-03T09:18:36.317Z,99234.28
2022-08-03T09:21:31.731Z,99246.28
2022-08-03T09:24:03.336Z,99244.31
2022-08-03T09:26:32.159Z,99239.13
2022-08-03T09:29:14.916Z,99248.31
2022-08-03T09:31:47.050Z,99232.75
2022-08-03T09:34:16.766Z,99241.13
2022-08-03T09:36:48.834Z,99235.19
2022-08-03T09:39:40.424Z,99226.03
2022-08-03T09:42:15.636Z,99228.44
2022-08-03T09:44:47.934Z,99220.84
2022-08-03T09:47:28.362Z,99222.84
2022-08-03T09:50:05.653Z,99217.25
2022-08-03T09:52:49.641Z,99229.25
2022-08-03T09:56:33.620Z,99219.19
2022-08-03T09:58:14.473Z,99237.53
2022-08-03T10:00:56.678Z,99230.75
2022-08-03T10:03:25.509Z,99235.56
2022-08-03T10:05:59.022Z,99238.38
2022-08-03T10:08:26.563Z,99226.03
2022-08-03T10:10:55.254Z,99238.06
2022-08-03T10:13:23.317Z,99247.66
2022-08-03T10:16:22.082Z,99236.44
2022-08-03T10:18:37.757Z,99238.88
2022-08-03T10:21:08.891Z,99222.06
2022-08-03T10:23:38.026Z,99230.88
2022-08-03T10:26:07.932Z,99242.84
2022-08-03T10:28:44.357Z,99248.81
2022-08-03T10:31:14.305Z,99234.44
2022-08-03T10:33:53.019Z,99245.97
2022-08-03T10:36:24.399Z,99255.13
2022-08-03T10:38:53.435Z,99240.72
2022-08-03T10:41:22.047Z,99236.72
2022-08-03T10:44:14.111Z,99244.28
2022-08-03T10:46:45.273Z,99235.09
2022-08-03T10:49:20.654Z,99246.31
2022-08-03T10:52:13.365Z,99247.13
2022-08-03T10:55:10.718Z,99250.31
2022-08-03T10:57:58.784Z,99247.94
2022-08-03T11:00:28.417Z,99250.75
2022-08-03T11:03:08.960Z,99249.53
2022-08-03T11:05:43.842Z,99241.22
2022-08-03T11:08:26.271Z,99244.84
2022-08-03T11:10:58.333Z,99249.25
2022-08-03T11:13:28.459Z,99239.28
2022-08-03T11:16:00.029Z,99245.25
2022-08-03T11:18:29.683Z,99235.63
2022-08-03T11:20:59.036Z,99252.84
2022-08-03T11:24:04.233Z,99247.25
2022-08-03T11:26:34.664Z,99242.09
2022-08-03T11:29:40.900Z,99241.66
2022-08-03T11:32:16.643Z,99246.47
2022-08-03T11:35:09.886Z,99240.06
2022-08-03T11:38:03.150Z,99246.44
2022-08-03T11:41:06.761Z,99245.25
2022-08-03T11:43:35.854Z,99240.09
2022-08-03T11:46:08.700Z,99235.66
2022-08-03T11:48:47.384Z,99239.28
2022-08-03T11:51:34.219Z,99250.88
2022-08-03T11:54:06.506Z,99237.66
2022-08-03T11:56:51.060Z,99243.66
2022-08-03T11:59:22.254Z,99249.25
2022-08-03T12:01:50.678Z,99242.84
2022-08-03T12:04:22.315Z,99238.03
2022-08-03T12:07:04.079Z,99243.63
2022-08-03T12:09:31.624Z,99232.44
2022-08-03T12:12:00.646Z,99232.03
2022-08-03T12:14:50.131Z,99237.66
2022-08-03T12:17:18.245Z,99232.06
2022-08-03T12:19:45.969Z,99230.88
2022-08-03T12:22:14.210Z,99226.50
2022-08-03T12:24:46.754Z,99237.53
2022-08-03T12:27:25.182Z,99227.81
2022-08-03T12:29:58.496Z,99225.00
2022-08-03T12:32:29.923Z,99234.16
2022-08-03T12:35:04.935Z,99241.50
2022-08-03T12:37:33.074Z,99224.22
2022-08-03T12:40:09.467Z,99227.91
2022-08-03T12:42:40.800Z,99234.03
2022-08-03T12:45:25.190Z,99231.66
2022-08-03T12:48:02.569Z,99231.69
2022-08-03T12:50:34.785Z,99236.72
2022-08-03T12:53:05.397Z,99235.13
2022-08-03T12:55:56.734Z,99235.06
2022-08-03T12:58:34.676Z,99239.31
2022-08-03T13:01:05.116Z,99244.56
2022-08-03T13:04:05.722Z,99235.22
2022-08-03T13:06:32.818Z,99234.31
2022-08-03T13:09:06.702Z,99240.34
2022-08-03T13:11:55.508Z,99233.41
2022-08-03T13:14:23.695Z,99239.66
2022-08-03T13:16:51.564Z,99239.72
2022-08-03T13:19:18.733Z,99237.19
2022-08-03T13:22:01.673Z,99236.47
2022-08-03T13:24:31.811Z,99242.97
2022-08-03T13:27:00.294Z,99236.44
2022-08-03T13:29:27.938Z,99226.22
2022-08-03T13:31:55.135Z,99235.84
2022-08-03T13:34:23.834Z,99230.31
2022-08-03T13:39:57.296Z,99225.22
2022-08-03T13:42:29.740Z,99236.97
2022-08-03T13:45:04.484Z,99233.06
2022-08-03T13:47:31.917Z,99234.59
2022-08-03T13:50:01.928Z,99222.91
2022-08-03T13:52:33.653Z,99230.81
2022-08-03T13:55:01.993Z,99232.69
2022-08-03T13:58:18.927Z,99223.97
2022-08-03T14:00:27.917Z,99233.94
2022-08-03T14:03:16.421Z,99231.09
2022-08-03T14:05:44.191Z,99234.72
2022-08-03T14:08:12.225Z,99238.34
2022-08-03T14:10:43.497Z,99225.63
2022-08-03T14:13:18.952Z,99234.66
2022-08-03T14:16:41.538Z,99219.22
2022-08-03T14:19:24.883Z,99213.13
2022-08-03T14:22:05.247Z,99214.88
2022-08-03T14:24:34.175Z,99206.16
2022-08-03T14:27:08.633Z,99219.69
2022-08-03T14:29:36.496Z,99227.06
2022-08-03T14:32:11.914Z,99230.38
2022-08-03T14:34:45.927Z,99234.59
2022-08-03T14:37:14.550Z,99247.06
2022-08-03T14:42:30.001Z,99236.44
2022-08-03T14:45:02.450Z,99239.44
2022-08-03T14:47:31.770Z,99238.09
2022-08-03T14:50:33.839Z,99241.13
2022-08-03T14:52:45.674Z,99239.78
2022-08-03T14:55:13.156Z,99228.22
2022-08-03T14:57:49.051Z,99235.09
2022-08-03T15:00:16.386Z,99224.88
2022-08-03T15:02:43.429Z,99236.19
2022-08-03T15:05:12.835Z,99244.28
2022-08-03T15:07:39.796Z,99238.09
2022-08-03T15:10:07.036Z,99240.34
2022-08-03T15:12:33.962Z,99230.06
2022-08-03T15:15:00.982Z,99223.56
2022-08-03T15:17:29.544Z,99233.63
2022-08-03T15:20:03.087Z,99226.41
2022-08-03T15:22:43.477Z,99236.63
2022-08-03T15:26:03.894Z,99246.38
2022-08-03T15:28:03.718Z,99241.22
2022-08-03T15:30:36.087Z,99235.72
2022-08-03T15:33:03.697Z,99237.81
2022-08-03T15:35:30.693Z,99233.88
2022-08-03T15:37:58.125Z,99248.38
2022-08-03T15:40:25.072Z,99236.00
2022-08-03T15:42:52.096Z,99230.06
2022-08-03T15:45:20.443Z,99248.88
2022-08-03T15:47:47.536Z,99240.09
2022-08-03T15:50:14.501Z,99243.31
2022-08-03T15:52:41.458Z,99237.66
2022-08-03T15:55:09.111Z,99252.03
2022-08-03T15:59:10.431Z,99245.66
2022-08-03T16:00:33.587Z,99235.63
2022-08-03T16:03:01.348Z,99242.78
2022-08-03T16:05:28.829Z,99234.28
2022-08-03T16:08:03.100Z,99246.63
2022-08-03T16:10:32.231Z,99219.34
2022-08-03T16:13:00.312Z,99238.44
2022-08-03T16:15:28.161Z,99237.94
2022-08-03T16:17:55.237Z,99233.44
2022-08-03T16:20:31.438Z,99236.50
2022-08-03T16:23:10.302Z,99232.38
2022-08-03T16:25:41.787Z,99243.06
2022-08-03T16:28:13.765Z,99242.97
2022-08-03T16:30:43.962Z,99240.41
2022-08-03T16:33:17.465Z,99239.53
2022-08-03T16:35:46.625Z,99245.75
2022-08-03T16:38:18.576Z,99245.31
2022-08-03T16:40:53.371Z,99234.47
2022-08-03T16:43:22.558Z,99225.88
2022-08-03T16:45:49.911Z,99247.34
2022-08-03T16:48:17.809Z,99240.84
2022-08-03T16:50:45.424Z,99248.28
2022-08-03T16:53:16.634Z,99245.38
2022-08-03T16:55:53.726Z,99237.69
2022-08-03T16:58:41.075Z,99245.50
2022-08-03T17:01:24.026Z,99256.53
2022-08-03T17:04:03.504Z,99258.34
2022-08-03T17:06:37.755Z,99261.41
2022-08-03T17:09:08.811Z,99257.25
2022-08-03T17:11:44.058Z,99257.16
2022-08-03T17:14:28.233Z,99266.19
2022-08-03T17:17:01.646Z,99264.75
2022-08-03T17:19:32.378Z,99281.38
2022-08-03T17:22:08.982Z,99257.78
2022-08-03T17:24:41.009Z,99271.81
2022-08-03T17:27:18.609Z,99272.56
2022-08-03T17:30:22.015Z,99278.38
2022-08-03T17:32:57.959Z,99279.78
2022-08-03T17:35:34.560Z,99285.72
2022-08-03T17:38:08.893Z,99285.94
2022-08-03T17:40:37.932Z,99288.56
2022-08-03T17:44:13.283Z,99286.09
2022-08-03T17:46:07.318Z,99310.66
2022-08-03T17:48:41.536Z,99296.72
2022-08-03T17:51:28.455Z,99295.47
2022-08-03T17:54:18.321Z,99298.94
2022-08-03T17:57:22.699Z,99309.19
2022-08-03T18:00:23.346Z,99295.50
2022-08-03T18:03:13.391Z,99303.03
2022-08-03T18:06:10.930Z,99302.50
2022-08-03T18:08:34.710Z,99300.38
2022-08-03T18:11:09.644Z,99313.47
2022-08-03T18:13:44.988Z,99307.81
2022-08-03T18:16:52.856Z,99319.66
2022-08-03T18:20:00.892Z,99324.69
2022-08-03T18:22:54.807Z,99310.41
2022-08-03T18:25:45.479Z,99319.97
2022-08-03T18:29:12.542Z,99336.16
2022-08-03T18:38:10.420Z,99347.00
2022-08-03T18:41:46.484Z,99337.44
2022-08-03T18:45:55.347Z,99334.47
2022-08-03T18:48:46.240Z,99351.50
2022-08-03T18:59:53.004Z,99364.72
2022-08-03T19:03:02.415Z,99362.22
2022-08-03T19:06:14.552Z,99365.97
2022-08-03T19:08:56.017Z,99344.38
2022-08-03T19:12:11.717Z,99364.34
2022-08-03T19:14:28.761Z,99345.28
2022-08-03T19:17:09.310Z,99360.75
2022-08-03T19:19:43.423Z,99357.81
2022-08-03T19:22:16.079Z,99354.47
2022-08-03T19:25:05.715Z,99338.72
2022-08-03T19:27:34.786Z,99349.47
2022-08-03T19:30:11.922Z,99355.13
2022-08-03T19:32:50.536Z,99370.94
2022-08-03T19:38:27.422Z,99365.91
2022-08-03T19:41:07.959Z,99355.91
2022-08-03T19:43:52.786Z,99342.09
2022-08-03T19:46:30.209Z,99361.34
2022-08-03T19:49:10.708Z,99361.81
2022-08-03T19:52:02.538Z,99362.84
2022-08-03T19:54:53.712Z,99362.41
2022-08-03T19:57:25.500Z,99350.63
2022-08-03T19:59:55.836Z,99353.97
2022-08-03T20:02:26.294Z,99361.94
2022-08-03T20:05:00.538Z,99342.03
2022-08-03T20:07:32.128Z,99362.06
2022-08-03T20:10:02.155Z,99361.97
2022-08-03T20:12:34.389Z,99356.88
2022-08-03T20:15:07.524Z,99370.34
2022-08-03T20:17:54.361Z,99370.59
2022-08-03T20:20:25.820Z,99367.38
2022-08-03T20:22:57.492Z,99367.84
2022-08-03T20:28:32.991Z,99385.34
2022-08-03T20:31:01.875Z,99378.56
2022-08-03T20:33:48.860Z,99372.72
2022-08-03T20:36:18.907Z,99391.75
2022-08-03T20:38:50.171Z,99380.56
2022-08-03T20:41:23.999Z,99393.34
2022-08-03T20:43:51.172Z,99392.53
2022-08-03T20:46:31.889Z,99405.31
2022-08-03T20:49:06.193Z,99405.78
2022-08-03T20:51:49.050Z,99403.22
2022-08-03T20:54:29.341Z,99404.03
2022-08-03T20:56:59.407Z,99404.22
2022-08-03T20:59:46.961Z,99416.91
2022-08-03T21:02:30.382Z,99407.34
2022-08-03T21:05:03.362Z,99403.19
2022-08-03T21:08:03.779Z,99411.00
2022-08-03T21:10:29.442Z,99414.09
2022-08-03T21:13:02.506Z,99360.81
2022-08-03T21:13:12.389Z,99351.00
2022-08-03T21:13:32.086Z,99419.50
2022-08-03T21:16:11.439Z,99412.31
2022-08-03T21:18:46.171Z,99410.16
2022-08-03T21:21:16.174Z,99420.25
2022-08-03T21:23:48.591Z,99424.84
2022-08-03T21:26:18.744Z,99411.59
2022-08-03T21:28:48.062Z,99427.00
2022-08-03T21:31:25.414Z,99424.13
2022-08-03T21:33:55.801Z,99424.78
2022-08-03T21:36:23.757Z,99399.34
2022-08-03T21:38:56.253Z,99421.75
2022-08-03T21:41:24.939Z,99422.56
2022-08-03T21:43:51.888Z,99411.41
2022-08-03T21:46:20.150Z,99421.78
2022-08-03T21:48:51.718Z,99426.38
2022-08-03T21:51:20.213Z,99425.09
2022-08-03T21:54:02.341Z,99422.66
2022-08-03T21:56:41.616Z,99438.09
2022-08-03T21:59:17.072Z,99445.56
2022-08-03T22:01:49.329Z,99420.91
2022-08-03T22:04:55.077Z,99427.94
2022-08-03T22:07:08.852Z,99437.81
2022-08-03T22:09:36.878Z,99428.25
2022-08-03T22:12:04.440Z,99443.69
2022-08-03T22:14:34.418Z,99436.06
2022-08-03T22:17:03.404Z,99436.06
2022-08-03T22:19:34.380Z,99422.94
2022-08-03T22:22:07.767Z,99427.50
2022-08-03T22:24:36.904Z,99423.31
2022-08-03T22:27:22.852Z,99445.53
2022-08-03T22:29:52.324Z,99441.81
2022-08-03T22:32:19.799Z,99440.53
2022-08-03T22:34:49.509Z,99447.53
2022-08-03T22:37:19.926Z,99452.25
2022-08-03T22:39:50.030Z,99446.59
2022-08-03T22:42:19.685Z,99447.59
2022-08-03T22:44:50.158Z,99452.31
2022-08-03T22:47:22.568Z,99450.22
2022-08-03T22:50:32.783Z,99438.41
2022-08-03T22:52:41.853Z,99444.38
2022-08-03T22:55:12.335Z,99447.47
2022-08-03T22:57:56.125Z,99446.53
2022-08-03T23:00:24.607Z,99442.69
2022-08-03T23:02:54.021Z,99452.56
2022-08-03T23:06:02.636Z,99449.31
2022-08-03T23:08:14.828Z,99451.94
2022-08-03T23:10:47.246Z,99443.38
2022-08-03T23:13:18.704Z,99467.38
2022-08-03T23:15:55.468Z,99458.78
2022-08-03T23:18:23.917Z,99463.63
2022-08-03T23:20:54.665Z,99457.78
2022-08-03T23:23:22.935Z,99464.44
2022-08-03T23:25:51.635Z,99465.91
2022-08-03T23:28:19.225Z,99461.22
2022-08-03T23:30:49.149Z,99452.97
2022-08-03T23:33:17.590Z,99454.59
2022-08-03T23:36:29.114Z,99463.19
2022-08-03T23:38:46.175Z,99459.16
2022-08-03T23:41:17.381Z,99460.63
2022-08-03T23:43:53.694Z,99464.19
2022-08-03T23:46:27.484Z,99468.88
2022-08-03T23:48:56.713Z,99461.59
2022-08-03T23:51:29.597Z,99471.50
2022-08-03T23:54:06.604Z,99479.63
2022-08-03T23:57:02.466Z,99463.22
2022-08-03T23:59:39.878Z,99469.41
